createdAt,value
2023-02-14T00:01:11.811Z,37.00
2023-02-14T00:03:39.272Z,34.87
2023-02-14T00:06:11.574Z,37.53
2023-02-14T00:08:41.203Z,40.07
2023-02-14T00:11:11.015Z,42.63
2023-02-14T00:13:38.549Z,47.70
2023-02-14T00:16:05.731Z,62.20
2023-02-14T00:18:51.116Z,61.80
2023-02-14T00:21:18.205Z,57.70
2023-02-14T00:23:45.769Z,61.87
2023-02-14T00:26:16.110Z,74.07
2023-02-14T00:28:43.633Z,85.00
2023-02-14T00:31:10.926Z,82.87
2023-02-14T00:33:38.313Z,79.73
2023-02-14T00:36:10.260Z,90.47
2023-02-14T00:38:37.355Z,71.63
2023-02-14T00:41:07.299Z,51.97
2023-02-14T00:43:34.323Z,47.80
2023-02-14T00:46:01.513Z,87.40
2023-02-14T00:48:28.532Z,66.77
2023-02-14T00:50:55.562Z,54.37
2023-02-14T00:53:22.541Z,65.50
2023-02-14T00:55:50.255Z,65.20
2023-02-14T00:58:17.202Z,69.87
2023-02-14T01:00:44.246Z,44.37
2023-02-14T01:03:11.305Z,54.07
2023-02-14T01:05:38.355Z,53.83
2023-02-14T01:08:05.994Z,51.23
2023-02-14T01:10:33.088Z,45.97
2023-02-14T01:13:00.106Z,43.63
2023-02-14T01:15:28.021Z,47.50
2023-02-14T01:17:55.080Z,58.23
2023-02-14T01:20:22.471Z,61.07
2023-02-14T01:22:49.515Z,59.20
2023-02-14T01:25:16.762Z,62.37
2023-02-14T01:27:44.074Z,80.13
2023-02-14T01:30:12.074Z,70.50
2023-02-14T01:32:39.145Z,67.63
2023-02-14T01:35:06.478Z,67.87
2023-02-14T01:37:35.007Z,63.83
2023-02-14T01:40:02.799Z,64.13
2023-02-14T01:42:29.904Z,62.57
2023-02-14T01:45:00.122Z,50.63
2023-02-14T01:47:30.572Z,47.37
2023-02-14T01:50:07.815Z,44.13
2023-02-14T01:55:15.848Z,38.47
2023-02-14T01:58:11.714Z,43.93
2023-02-14T02:00:58.936Z,42.60
2023-02-14T02:03:28.158Z,45.30
2023-02-14T02:06:22.520Z,46.47
2023-02-14T02:09:11.406Z,46.53
2023-02-14T02:11:38.611Z,45.83
2023-02-14T02:14:13.842Z,45.90
2023-02-14T02:17:18.235Z,41.07
2023-02-14T02:20:36.453Z,46.20
2023-02-14T02:23:22.814Z,45.10
2023-02-14T02:26:27.946Z,41.40
2023-02-14T02:29:20.710Z,40.77
2023-02-14T02:32:21.689Z,29.53
2023-02-14T02:35:16.284Z,28.30
2023-02-14T02:38:05.215Z,32.00
2023-02-14T02:41:09.817Z,33.30
2023-02-14T02:43:52.584Z,38.10
2023-02-14T02:46:50.299Z,40.17
2023-02-14T02:49:53.102Z,34.50
2023-02-14T02:53:05.648Z,47.57
2023-02-14T02:55:58.763Z,42.40
2023-02-14T02:58:41.825Z,49.03
2023-02-14T03:01:27.959Z,23.20
2023-02-14T03:04:19.344Z,29.70
2023-02-14T03:06:48.263Z,42.93
2023-02-14T03:09:21.299Z,30.07
2023-02-14T03:12:09.868Z,39.77
2023-02-14T03:15:18.957Z,37.30
2023-02-14T03:20:55.084Z,33.67
2023-02-14T03:23:29.914Z,38.10
2023-02-14T03:26:08.059Z,43.85
2023-02-14T03:28:58.202Z,40.80
2023-02-14T03:31:45.993Z,38.80
2023-02-14T03:34:38.535Z,38.92
2023-02-14T03:37:16.615Z,36.80
2023-02-14T03:39:53.156Z,36.23
2023-02-14T03:42:26.462Z,33.10
2023-02-14T03:44:56.872Z,36.20
2023-02-14T03:47:29.105Z,38.20
2023-02-14T03:50:10.677Z,36.17
2023-02-14T03:52:40.569Z,36.13
2023-02-14T03:55:09.756Z,34.77
2023-02-14T03:57:52.706Z,33.67
2023-02-14T04:00:20.609Z,32.33
2023-02-14T04:02:56.252Z,31.73
2023-02-14T04:05:26.898Z,38.53
2023-02-14T04:07:57.016Z,35.73
2023-02-14T04:10:25.536Z,33.53
2023-02-14T04:12:53.948Z,30.17
2023-02-14T04:15:21.645Z,31.93
2023-02-14T04:18:07.405Z,30.13
2023-02-14T04:20:34.611Z,24.00
2023-02-14T04:23:03.409Z,24.70
2023-02-14T04:25:31.601Z,26.23
2023-02-14T04:27:58.569Z,26.00
2023-02-14T04:30:26.618Z,32.97
2023-02-14T04:32:53.636Z,26.13
2023-02-14T04:35:20.899Z,22.03
2023-02-14T04:37:48.632Z,28.50
2023-02-14T04:40:18.617Z,28.60
2023-02-14T04:42:46.323Z,31.77
2023-02-14T04:45:14.471Z,31.33
2023-02-14T04:47:41.466Z,28.47
2023-02-14T04:50:09.732Z,24.07
2023-02-14T04:52:36.930Z,25.93
2023-02-14T04:55:05.330Z,23.67
2023-02-14T04:57:32.438Z,26.17
2023-02-14T05:00:00.178Z,24.27
2023-02-14T05:02:27.167Z,25.37
2023-02-14T05:04:54.728Z,32.43
2023-02-14T05:07:21.706Z,34.07
2023-02-14T05:09:48.860Z,31.40
2023-02-14T05:12:17.196Z,31.80
2023-02-14T05:14:44.197Z,32.33
2023-02-14T05:17:11.218Z,31.07
2023-02-14T05:19:38.293Z,33.10
2023-02-14T05:22:05.340Z,31.07
2023-02-14T05:24:32.296Z,33.67
2023-02-14T05:26:59.353Z,34.23
2023-02-14T05:29:26.409Z,37.33
2023-02-14T05:31:53.835Z,41.07
2023-02-14T05:34:21.827Z,46.10
2023-02-14T05:36:49.044Z,46.73
2023-02-14T05:39:16.043Z,44.37
2023-02-14T05:41:43.135Z,40.03
2023-02-14T05:44:10.165Z,37.77
2023-02-14T05:46:37.237Z,39.50
2023-02-14T05:49:05.226Z,34.00
2023-02-14T05:51:32.197Z,33.97
2023-02-14T05:54:00.337Z,37.23
2023-02-14T05:56:27.789Z,37.77
2023-02-14T05:58:54.813Z,39.03
2023-02-14T06:01:22.139Z,32.57
2023-02-14T06:03:49.278Z,41.67
2023-02-14T06:06:16.306Z,49.63
2023-02-14T06:08:43.283Z,37.40
2023-02-14T06:11:10.357Z,37.60
2023-02-14T06:13:37.455Z,42.97
2023-02-14T06:16:05.156Z,40.77
2023-02-14T06:18:32.157Z,41.77
2023-02-14T06:20:59.463Z,36.73
2023-02-14T06:23:26.720Z,37.43
2023-02-14T06:25:53.716Z,40.17
2023-02-14T06:28:20.777Z,36.97
2023-02-14T06:30:47.913Z,31.13
2023-02-14T06:33:14.958Z,27.50
2023-02-14T06:35:42.077Z,30.10
2023-02-14T06:38:09.056Z,47.50
2023-02-14T06:40:36.090Z,37.50
2023-02-14T06:43:03.150Z,40.83
2023-02-14T06:45:30.210Z,36.30
2023-02-14T06:47:57.281Z,39.63
2023-02-14T06:50:24.357Z,39.10
2023-02-14T06:52:51.671Z,35.97
2023-02-14T06:55:19.382Z,41.83
2023-02-14T06:57:46.495Z,28.10
2023-02-14T07:00:15.053Z,32.20
2023-02-14T07:02:42.148Z,32.67
2023-02-14T07:05:09.283Z,40.27
2023-02-14T07:07:36.364Z,41.10
2023-02-14T07:10:04.220Z,43.70
2023-02-14T07:12:31.275Z,41.97
2023-02-14T07:14:58.233Z,38.63
2023-02-14T07:17:25.277Z,40.07
2023-02-14T07:19:52.374Z,38.53
2023-02-14T07:22:19.322Z,40.80
2023-02-14T07:24:46.400Z,37.60
2023-02-14T07:27:13.385Z,32.73
2023-02-14T07:29:40.565Z,43.80
2023-02-14T07:32:07.628Z,42.57
2023-02-14T07:34:34.734Z,44.17
2023-02-14T07:37:02.123Z,39.77
2023-02-14T07:39:29.268Z,40.90
2023-02-14T07:41:56.314Z,38.97
2023-02-14T07:44:26.438Z,40.90
2023-02-14T07:46:53.413Z,41.97
2023-02-14T07:49:20.473Z,39.60
2023-02-14T07:51:47.546Z,43.50
2023-02-14T07:54:14.627Z,42.07
2023-02-14T07:56:41.661Z,41.03
2023-02-14T07:59:08.823Z,39.73
2023-02-14T08:01:35.916Z,33.57
2023-02-14T08:04:02.970Z,33.90
2023-02-14T08:06:30.198Z,33.23
2023-02-14T08:08:57.171Z,34.43
2023-02-14T08:11:42.648Z,35.47
2023-02-14T08:14:09.931Z,32.13
2023-02-14T08:16:38.610Z,33.83
2023-02-14T08:19:06.748Z,32.60
2023-02-14T08:21:33.740Z,33.20
2023-02-14T08:24:01.053Z,29.97
2023-02-14T08:26:28.214Z,32.10
2023-02-14T08:28:55.771Z,31.43
2023-02-14T08:31:34.433Z,29.70
2023-02-14T08:34:03.303Z,31.63
2023-02-14T08:36:30.415Z,31.50
2023-02-14T08:38:57.982Z,29.97
2023-02-14T08:41:25.687Z,28.07
2023-02-14T08:43:53.612Z,25.87
2023-02-14T08:46:20.648Z,29.87
2023-02-14T08:48:50.505Z,31.13
2023-02-14T08:51:17.765Z,30.83
2023-02-14T08:53:46.468Z,29.93
2023-02-14T08:56:15.323Z,23.87
2023-02-14T08:58:42.768Z,24.03
2023-02-14T09:01:15.526Z,24.53
2023-02-14T09:03:43.991Z,25.17
2023-02-14T09:06:14.708Z,25.33
2023-02-14T09:08:42.129Z,24.43
2023-02-14T09:11:18.709Z,23.80
2023-02-14T09:13:51.792Z,24.90
2023-02-14T09:16:20.476Z,20.30
2023-02-14T09:18:48.258Z,21.60
2023-02-14T09:21:18.575Z,18.37
2023-02-14T09:23:45.576Z,19.45
2023-02-14T09:26:15.523Z,18.23
2023-02-14T09:28:44.001Z,17.67
2023-02-14T09:31:22.915Z,18.48
2023-02-14T09:34:09.849Z,16.52
2023-02-14T09:36:36.885Z,16.88
2023-02-14T09:39:04.222Z,16.70
2023-02-14T09:41:31.280Z,18.35
2023-02-14T09:44:19.393Z,18.55
2023-02-14T09:46:51.130Z,17.35
2023-02-14T09:49:23.008Z,16.90
2023-02-14T09:51:53.570Z,13.73
2023-02-14T09:54:27.720Z,13.88
2023-02-14T09:57:09.153Z,9.70
2023-02-14T09:59:48.302Z,13.30
2023-02-14T10:02:46.345Z,12.80
2023-02-14T10:05:27.185Z,15.85
2023-02-14T10:08:19.814Z,15.63
2023-02-14T10:11:12.224Z,15.23
2023-02-14T10:13:50.018Z,8.15
2023-02-14T10:16:34.176Z,7.70
2023-02-14T10:19:27.011Z,11.38
2023-02-14T10:21:58.344Z,13.32
2023-02-14T10:24:32.377Z,11.70
2023-02-14T10:27:11.411Z,11.20
2023-02-14T10:29:38.802Z,9.15
2023-02-14T10:32:14.574Z,9.88
2023-02-14T10:34:50.599Z,10.68
2023-02-14T10:37:42.618Z,11.48
2023-02-14T10:40:48.977Z,12.80
2023-02-14T10:43:32.597Z,11.70
2023-02-14T10:46:21.884Z,9.48
2023-02-14T10:49:08.391Z,10.02
2023-02-14T10:51:46.864Z,10.30
2023-02-14T10:54:19.872Z,11.23
2023-02-14T10:57:02.313Z,11.00
2023-02-14T10:59:44.920Z,8.90
2023-02-14T11:02:17.363Z,11.05
2023-02-14T11:04:47.498Z,9.93
2023-02-14T11:07:17.273Z,9.60
2023-02-14T11:09:45.793Z,9.20
2023-02-14T11:12:31.067Z,9.23
2023-02-14T11:15:31.041Z,12.15
2023-02-14T11:18:22.421Z,9.20
2023-02-14T11:21:07.858Z,9.02
2023-02-14T11:23:38.416Z,9.80
2023-02-14T11:26:11.939Z,9.23
2023-02-14T11:28:52.477Z,9.75
2023-02-14T11:31:50.519Z,7.93
2023-02-14T11:34:22.287Z,7.88
2023-02-14T11:36:49.345Z,9.57
2023-02-14T11:39:27.827Z,8.63
2023-02-14T11:41:58.184Z,8.85
2023-02-14T11:44:28.722Z,8.68
2023-02-14T11:46:57.952Z,8.88
2023-02-14T11:49:29.520Z,7.55
2023-02-14T11:51:58.963Z,7.78
2023-02-14T11:54:39.340Z,7.13
2023-02-14T11:57:32.454Z,7.60
2023-02-14T12:00:03.928Z,8.40
2023-02-14T12:02:43.711Z,8.60
2023-02-14T12:05:19.702Z,9.05
2023-02-14T12:07:50.601Z,8.32
2023-02-14T12:10:22.965Z,7.50
2023-02-14T12:13:08.854Z,9.60
2023-02-14T12:15:48.326Z,8.25
2023-02-14T12:18:18.504Z,8.93
2023-02-14T12:21:24.648Z,8.80
2023-02-14T12:24:15.942Z,8.75
2023-02-14T12:27:03.039Z,8.35
2023-02-14T12:29:44.389Z,9.07
2023-02-14T12:32:28.085Z,9.07
2023-02-14T12:35:14.878Z,9.13
2023-02-14T12:38:02.682Z,8.35
2023-02-14T12:40:56.162Z,9.07
2023-02-14T12:43:56.428Z,9.15
2023-02-14T12:46:38.895Z,9.38
2023-02-14T12:49:35.347Z,9.85
2023-02-14T12:52:08.749Z,10.65
2023-02-14T12:54:59.211Z,11.10
2023-02-14T12:57:33.054Z,11.18
2023-02-14T13:00:16.199Z,9.77
2023-02-14T13:03:12.645Z,10.90
2023-02-14T13:06:02.480Z,9.85
2023-02-14T13:08:51.067Z,11.85
2023-02-14T13:11:42.283Z,10.90
2023-02-14T13:14:31.211Z,9.63
2023-02-14T13:17:17.238Z,9.75
2023-02-14T13:19:56.735Z,9.55
2023-02-14T13:22:27.387Z,9.38
2023-02-14T13:24:59.861Z,10.68
2023-02-14T13:27:32.718Z,10.35
2023-02-14T13:30:05.110Z,11.65
2023-02-14T13:32:42.675Z,10.82
2023-02-14T13:35:17.546Z,11.95
2023-02-14T13:37:58.171Z,11.40
2023-02-14T13:40:28.177Z,11.48
2023-02-14T13:43:00.396Z,11.43
2023-02-14T13:45:40.123Z,10.68
2023-02-14T13:48:14.240Z,12.15
2023-02-14T13:51:03.168Z,13.07
2023-02-14T13:53:35.155Z,9.93
2023-02-14T13:56:12.402Z,9.70
2023-02-14T13:58:51.267Z,10.23
2023-02-14T14:01:31.746Z,9.73
2023-02-14T14:04:19.696Z,11.85
2023-02-14T14:07:03.112Z,10.05
2023-02-14T14:09:42.640Z,10.98
2023-02-14T14:12:28.767Z,9.18
2023-02-14T14:15:05.418Z,11.05
2023-02-14T14:17:38.419Z,9.93
2023-02-14T14:20:26.022Z,10.05
2023-02-14T14:22:55.231Z,10.15
2023-02-14T14:25:34.334Z,9.73
2023-02-14T14:28:02.303Z,10.02
2023-02-14T14:30:33.284Z,7.82
2023-02-14T14:33:24.275Z,9.02
2023-02-14T14:35:56.091Z,9.90
2023-02-14T14:38:23.959Z,10.52
2023-02-14T14:40:51.658Z,10.77
2023-02-14T14:43:31.686Z,10.43
2023-02-14T14:46:01.397Z,7.60
2023-02-14T14:48:44.063Z,7.13
2023-02-14T14:51:35.216Z,8.38
2023-02-14T14:54:16.584Z,7.15
2023-02-14T14:57:02.010Z,8.50
2023-02-14T14:59:35.405Z,9.50
2023-02-14T15:02:20.690Z,8.40
2023-02-14T15:04:48.303Z,6.75
2023-02-14T15:07:33.710Z,7.93
2023-02-14T15:10:01.743Z,9.35
2023-02-14T15:12:48.266Z,9.88
2023-02-14T15:15:18.327Z,10.13
2023-02-14T15:17:46.973Z,8.50
2023-02-14T15:20:22.534Z,8.50
2023-02-14T15:22:53.719Z,7.20
2023-02-14T15:25:25.927Z,7.65
2023-02-14T15:27:54.152Z,8.10
2023-02-14T15:30:23.758Z,7.85
2023-02-14T15:32:52.296Z,10.32
2023-02-14T15:35:25.895Z,9.07
2023-02-14T15:37:54.438Z,11.30
2023-02-14T15:40:28.313Z,11.10
2023-02-14T15:42:59.232Z,12.00
2023-02-14T15:45:27.885Z,13.50
2023-02-14T15:48:19.740Z,8.75
2023-02-14T15:50:50.878Z,13.35
2023-02-14T15:53:21.354Z,13.43
2023-02-14T15:55:50.377Z,12.45
2023-02-14T15:58:29.065Z,15.00
2023-02-14T16:00:56.736Z,12.32
2023-02-14T16:03:31.303Z,12.13
2023-02-14T16:05:58.823Z,9.23
2023-02-14T16:08:34.709Z,10.85
2023-02-14T16:11:09.928Z,8.77
2023-02-14T16:13:42.449Z,8.50
2023-02-14T16:16:12.048Z,8.18
2023-02-14T16:18:45.851Z,10.02
2023-02-14T16:21:28.870Z,10.63
2023-02-14T16:24:11.401Z,19.20
2023-02-14T16:26:47.679Z,18.58
2023-02-14T16:29:17.474Z,20.07
2023-02-14T16:32:19.325Z,23.90
2023-02-14T16:34:47.743Z,33.03
2023-02-14T16:37:24.862Z,23.33
2023-02-14T16:42:21.712Z,24.10
2023-02-14T16:44:49.218Z,26.05
2023-02-14T16:47:19.014Z,29.55
2023-02-14T16:49:46.390Z,32.55
2023-02-14T16:52:17.327Z,29.38
2023-02-14T16:54:45.579Z,27.02
2023-02-14T16:57:23.379Z,22.23
2023-02-14T16:59:51.249Z,16.63
2023-02-14T17:02:19.431Z,22.60
2023-02-14T17:04:46.766Z,24.88
2023-02-14T17:07:15.825Z,23.02
2023-02-14T17:09:50.751Z,21.50
2023-02-14T17:12:23.625Z,21.65
2023-02-14T17:14:55.058Z,21.10
2023-02-14T17:17:22.479Z,20.30
2023-02-14T17:19:51.558Z,19.25
2023-02-14T17:22:20.117Z,20.90
2023-02-14T17:24:47.060Z,22.55
2023-02-14T17:27:14.304Z,20.35
2023-02-14T17:29:42.003Z,21.73
2023-02-14T17:32:14.002Z,20.30
2023-02-14T17:34:41.420Z,23.67
2023-02-14T17:37:08.632Z,20.63
2023-02-14T17:39:36.097Z,24.85
2023-02-14T17:42:03.830Z,41.10
2023-02-14T17:44:32.675Z,37.65
2023-02-14T17:47:00.421Z,33.90
2023-02-14T17:49:27.499Z,30.33
2023-02-14T17:51:56.726Z,30.38
2023-02-14T17:54:24.402Z,30.13
2023-02-14T17:56:51.889Z,38.65
2023-02-14T17:59:18.926Z,40.08
2023-02-14T18:01:47.983Z,34.20
2023-02-14T18:04:15.038Z,38.03
2023-02-14T18:06:43.333Z,43.63
2023-02-14T18:09:10.682Z,40.77
2023-02-14T18:11:40.654Z,29.75
2023-02-14T18:14:08.389Z,32.00
2023-02-14T18:16:38.200Z,37.97
2023-02-14T18:19:06.080Z,41.03
2023-02-14T18:21:36.522Z,36.60
2023-02-14T18:24:04.599Z,33.73
2023-02-14T18:26:31.737Z,30.03
2023-02-14T18:29:00.238Z,31.48
2023-02-14T18:31:27.387Z,29.33
2023-02-14T18:33:55.170Z,32.50
2023-02-14T18:36:24.674Z,29.83
2023-02-14T18:38:52.540Z,28.80
2023-02-14T18:41:20.161Z,27.07
2023-02-14T18:43:49.662Z,27.45
2023-02-14T18:46:25.339Z,29.10
2023-02-14T18:48:53.181Z,28.80
2023-02-14T18:51:26.596Z,27.83
2023-02-14T18:53:55.821Z,27.67
2023-02-14T18:56:25.840Z,27.07
2023-02-14T18:58:59.663Z,26.37
2023-02-14T19:01:30.878Z,29.70
2023-02-14T19:04:00.057Z,38.17
2023-02-14T19:06:29.698Z,37.70
2023-02-14T19:08:58.171Z,36.13
2023-02-14T19:11:31.874Z,37.70
2023-02-14T19:14:01.497Z,49.27
2023-02-14T19:16:33.802Z,48.40
2023-02-14T19:19:02.882Z,48.77
2023-02-14T19:21:37.080Z,48.50
2023-02-14T19:24:07.283Z,46.30
2023-02-14T19:26:40.523Z,43.73
2023-02-14T19:29:11.094Z,41.77
2023-02-14T19:31:41.351Z,45.00
2023-02-14T19:34:15.244Z,49.80
2023-02-14T19:36:42.260Z,47.70
2023-02-14T19:39:10.949Z,45.83
2023-02-14T19:41:38.120Z,44.90
2023-02-14T19:44:07.196Z,42.07
2023-02-14T19:46:34.608Z,35.83
2023-02-14T19:49:02.257Z,40.70
2023-02-14T19:51:34.620Z,43.13
2023-02-14T19:54:05.790Z,46.03
2023-02-14T19:56:36.703Z,56.20
2023-02-14T19:59:09.311Z,57.03
2023-02-14T20:01:39.752Z,54.10
2023-02-14T20:04:11.340Z,51.10
2023-02-14T20:06:38.690Z,49.57
2023-02-14T20:09:06.949Z,46.67
2023-02-14T20:11:52.200Z,49.63
2023-02-14T20:14:20.920Z,44.67
2023-02-14T20:16:48.716Z,40.53
2023-02-14T20:19:19.068Z,41.90
2023-02-14T20:21:48.280Z,48.07
2023-02-14T20:24:18.812Z,44.30
2023-02-14T20:26:46.027Z,40.87
2023-02-14T20:29:13.703Z,26.90
2023-02-14T20:31:44.240Z,27.83
2023-02-14T20:34:12.919Z,29.83
2023-02-14T20:36:40.819Z,28.90
2023-02-14T20:39:09.646Z,32.83
2023-02-14T20:41:37.155Z,35.17
2023-02-14T20:44:06.886Z,40.10
2023-02-14T20:46:35.031Z,30.50
2023-02-14T20:49:03.031Z,27.97
2023-02-14T20:51:30.297Z,31.83
2023-02-14T20:53:58.044Z,38.97
2023-02-14T20:56:25.064Z,47.20
2023-02-14T20:58:52.616Z,40.80
2023-02-14T21:01:24.527Z,62.87
2023-02-14T21:03:54.213Z,63.73
2023-02-14T21:06:23.903Z,69.73
2023-02-14T21:08:51.475Z,55.87
2023-02-14T21:11:20.646Z,64.60
2023-02-14T21:13:47.721Z,53.90
2023-02-14T21:16:17.497Z,74.43
2023-02-14T21:18:48.896Z,81.33
2023-02-14T21:21:20.248Z,71.77
2023-02-14T21:23:51.890Z,54.03
2023-02-14T21:26:20.378Z,40.43
2023-02-14T21:28:48.022Z,36.63
2023-02-14T21:31:17.539Z,47.40
2023-02-14T21:33:44.606Z,32.30
2023-02-14T21:36:17.389Z,42.87
2023-02-14T21:38:44.748Z,56.07
2023-02-14T21:41:14.986Z,54.53
2023-02-14T21:43:45.084Z,55.67
2023-02-14T21:46:15.259Z,57.67
2023-02-14T21:49:02.657Z,53.10
2023-02-14T21:51:31.686Z,50.05
2023-02-14T21:54:01.921Z,54.77
2023-02-14T21:56:29.565Z,47.67
2023-02-14T21:58:57.066Z,38.73
2023-02-14T22:01:32.395Z,36.20
2023-02-14T22:04:00.725Z,43.87
2023-02-14T22:06:28.646Z,44.63
2023-02-14T22:08:57.876Z,47.00
2023-02-14T22:11:27.564Z,42.40
2023-02-14T22:13:55.643Z,29.40
2023-02-14T22:16:24.787Z,30.27
2023-02-14T22:18:52.765Z,33.30
2023-02-14T22:21:22.828Z,34.63
2023-02-14T22:23:50.284Z,33.17
2023-02-14T22:26:43.294Z,35.10
2023-02-14T22:29:13.420Z,33.03
2023-02-14T22:31:43.416Z,33.93
2023-02-14T22:34:14.152Z,34.07
2023-02-14T22:36:42.021Z,36.33
2023-02-14T22:39:09.667Z,35.87
2023-02-14T22:41:38.267Z,33.07
2023-02-14T22:44:06.258Z,38.90
2023-02-14T22:46:36.885Z,41.47
2023-02-14T22:49:05.344Z,39.67
2023-02-14T22:51:32.315Z,35.43
2023-02-14T22:54:12.471Z,30.53
2023-02-14T22:56:42.830Z,31.33
2023-02-14T22:59:20.788Z,29.60
2023-02-14T23:01:49.034Z,28.97
2023-02-14T23:04:18.192Z,30.47
2023-02-14T23:06:45.443Z,35.60
2023-02-14T23:09:14.021Z,55.80
2023-02-14T23:11:43.765Z,41.10
2023-02-14T23:14:31.382Z,54.93
2023-02-14T23:20:02.830Z,29.57
2023-02-14T23:22:35.636Z,33.63
2023-02-14T23:25:05.318Z,37.73
2023-02-14T23:27:34.833Z,25.33
2023-02-14T23:30:03.174Z,50.20
2023-02-14T23:32:30.270Z,59.87
2023-02-14T23:34:58.649Z,68.17
2023-02-14T23:37:26.257Z,60.73
2023-02-14T23:39:53.464Z,58.47
2023-02-14T23:42:20.725Z,65.13
2023-02-14T23:44:47.948Z,47.53
2023-02-14T23:47:16.364Z,35.50
2023-02-14T23:49:44.165Z,34.10
2023-02-14T23:52:13.220Z,34.77
2023-02-14T23:54:40.924Z,30.97
2023-02-14T23:57:08.739Z,29.17
2023-02-14T23:59:36.995Z,26.77
